Time;durP1;ratioP1;P1;durP2;ratioP2;P2;SDS_P1;SDS_P2;PMS_P1;PMS_P2;Temp;Humidity;BMP_temperature;BMP_pressure;BME280_temperature;BME280_humidity;BME280_pressure;Samples;Min_cycle;Max_cycle;Signal;HPM_P1;HPM_P2
2022/07/17 00:01:56;;;;;;;13.63;1.73;;;;;;;21.17;44.61;102802.38;5071508;28;20024;-77
2022/07/17 00:04:22;;;;;;;6.35;1.30;;;;;;;21.17;44.30;102800.47;5071399;28;20067;-77
2022/07/17 00:06:50;;;;;;;2.60;1.40;;;;;;;21.06;45.04;102790.44;5071330;28;20036;-77
2022/07/17 00:09:15;;;;;;;7.82;1.63;;;;;;;21.01;45.36;102795.84;5070707;28;20453;-76
2022/07/17 00:11:41;;;;;;;6.63;1.27;;;;;;;20.95;45.01;102799.53;5090421;28;20046;-77
2022/07/17 00:14:06;;;;;;;5.72;1.70;;;;;;;21.07;45.00;102792.09;5092041;28;20036;-77
2022/07/17 00:16:32;;;;;;;2.15;1.05;;;;;;;21.06;44.86;102795.06;5091084;28;20036;-77
2022/07/17 00:18:57;;;;;;;5.43;1.70;;;;;;;20.92;45.31;102789.06;5091133;28;20042;-76
2022/07/17 00:21:23;;;;;;;6.95;1.70;;;;;;;20.95;45.47;102788.59;5090897;28;20089;-76
2022/07/17 00:23:48;;;;;;;7.07;2.72;;;;;;;20.89;45.78;102789.56;5079717;28;20094;-75
2022/07/17 00:26:13;;;;;;;6.53;2.40;;;;;;;20.89;45.92;102795.84;5071240;28;20115;-77
2022/07/17 00:28:39;;;;;;;7.93;2.50;;;;;;;20.81;45.86;102789.97;5070618;28;20033;-78
2022/07/17 00:31:05;;;;;;;4.95;1.92;;;;;;;20.93;45.84;102793.47;5070693;28;20044;-77
2022/07/17 00:33:30;;;;;;;5.20;1.92;;;;;;;20.76;46.27;102793.44;5071560;28;20228;-76
2022/07/17 00:35:56;;;;;;;4.80;1.77;;;;;;;20.69;46.84;102791.94;5071517;28;20040;-76
2022/07/17 00:38:21;;;;;;;10.45;2.22;;;;;;;20.73;46.37;102793.09;5053599;28;20036;-74
2022/07/17 00:40:46;;;;;;;5.22;1.90;;;;;;;20.79;46.17;102798.41;5071344;28;20032;-75
2022/07/17 00:43:12;;;;;;;7.32;1.50;;;;;;;20.79;46.40;102787.50;5080889;28;20507;-76
2022/07/17 00:45:37;;;;;;;7.22;1.92;;;;;;;20.66;46.93;102786.94;5091415;28;20067;-77
2022/07/17 00:48:05;;;;;;;6.13;1.25;;;;;;;20.72;46.96;102783.22;5091137;28;20085;-77
2022/07/17 00:50:36;;;;;;;3.72;1.33;;;;;;;20.66;47.15;102781.47;5091003;28;20351;-76
2022/07/17 00:53:03;;;;;;;4.57;1.50;;;;;;;20.58;47.44;102784.63;5085405;28;20072;-76
2022/07/17 00:55:29;;;;;;;4.03;1.48;;;;;;;20.59;46.89;102776.19;5070220;28;20033;-76
2022/07/17 00:57:55;;;;;;;4.72;1.67;;;;;;;20.56;47.16;102770.38;5069878;28;20135;-76
2022/07/17 01:00:22;;;;;;;5.20;2.00;;;;;;;20.51;47.44;102771.09;5070724;28;20024;-76
2022/07/17 01:02:49;;;;;;;4.55;1.90;;;;;;;20.63;47.11;102774.63;5070766;28;20040;-76
2022/07/17 01:05:15;;;;;;;6.35;2.95;;;;;;;20.53;47.09;102773.59;5070610;28;20020;-76
2022/07/17 01:07:41;;;;;;;3.30;1.67;;;;;;;20.46;47.59;102779.19;5070275;28;20047;-76
2022/07/17 01:10:07;;;;;;;7.47;1.77;;;;;;;20.59;47.48;102786.28;5077463;28;20036;-76
2022/07/17 01:12:33;;;;;;;5.78;2.45;;;;;;;20.57;48.10;102793.88;5089880;28;20052;-76
2022/07/17 01:15:00;;;;;;;4.38;2.22;;;;;;;20.58;48.19;102785.44;5089680;28;20044;-77
2022/07/17 01:17:26;;;;;;;7.80;1.73;;;;;;;20.51;48.57;102792.97;5089162;28;20052;-77
2022/07/17 01:19:52;;;;;;;8.85;3.25;;;;;;;20.56;47.57;102792.22;5080113;28;20395;-77
2022/07/17 01:22:17;;;;;;;4.70;2.97;;;;;;;20.42;48.34;102786.19;5069619;28;20511;-76
2022/07/17 01:24:43;;;;;;;4.72;2.08;;;;;;;20.38;48.68;102792.41;5068955;28;20044;-76
2022/07/17 01:27:08;;;;;;;6.75;2.90;;;;;;;20.39;48.27;102797.63;5069106;28;20412;-75
2022/07/17 01:29:38;;;;;;;7.38;2.13;;;;;;;20.44;48.40;102788.72;5069149;28;20044;-76
2022/07/17 01:32:04;;;;;;;8.50;2.70;;;;;;;20.51;48.15;102794.84;5069542;28;20038;-76
2022/07/17 01:34:29;;;;;;;6.05;1.90;;;;;;;20.35;48.42;102784.69;5068852;28;20028;-76
2022/07/17 01:36:55;;;;;;;4.10;2.00;;;;;;;20.29;48.44;102789.22;5068831;28;20041;-76
2022/07/17 01:39:52;;;;;;;3.60;1.50;;;;;;;20.25;48.62;102785.31;5069051;28;20557;-75
2022/07/17 01:42:07;;;;;;;5.03;1.80;;;;;;;20.02;49.20;102786.19;5069270;28;20067;-77
2022/07/17 01:44:32;;;;;;;5.88;2.08;;;;;;;20.05;49.14;102790.31;5089176;28;20060;-76
2022/07/17 01:46:57;;;;;;;4.93;2.75;;;;;;;20.02;49.32;102788.94;5070730;28;20446;-76
2022/07/17 01:49:23;;;;;;;5.13;1.77;;;;;;;20.09;48.92;102784.16;5089035;28;20040;-78
2022/07/17 01:51:49;;;;;;;5.43;1.90;;;;;;;20.03;49.11;102789.72;5089183;28;20511;-76
2022/07/17 01:54:15;;;;;;;4.65;1.48;;;;;;;19.98;49.46;102789.63;5072897;28;20515;-75
2022/07/17 01:56:40;;;;;;;3.95;1.77;;;;;;;20.04;49.22;102789.50;5068368;28;20037;-75
2022/07/17 01:59:05;;;;;;;4.60;2.17;;;;;;;20.01;49.77;102784.53;5069218;28;20530;-76
2022/07/17 02:01:31;;;;;;;7.22;1.98;;;;;;;19.97;49.57;102782.50;5068481;28;20040;-75
2022/07/17 02:03:56;;;;;;;4.68;1.50;;;;;;;19.94;49.54;102785.72;5069038;28;20044;-76
2022/07/17 02:06:22;;;;;;;6.53;2.35;;;;;;;19.93;49.04;102778.63;5069116;28;20404;-75
2022/07/17 02:08:50;;;;;;;4.18;2.10;;;;;;;19.88;49.51;102781.22;5069185;28;20094;-75
2022/07/17 02:11:17;;;;;;;4.90;2.38;;;;;;;19.92;48.95;102779.69;5086019;28;20035;-70
2022/07/17 02:13:42;;;;;;;6.32;2.25;;;;;;;19.80;49.72;102785.16;5088876;28;20513;-75
2022/07/17 02:16:08;;;;;;;4.95;1.83;;;;;;;19.84;49.50;102791.78;5079124;28;20124;-75
2022/07/17 02:18:34;;;;;;;5.22;2.35;;;;;;;19.89;49.30;102788.34;5069330;28;20040;-75
2022/07/17 02:21:00;;;;;;;5.25;1.77;;;;;;;19.82;49.45;102788.47;5069262;28;20045;-76
2022/07/17 02:23:25;;;;;;;4.82;2.08;;;;;;;19.81;49.29;102788.72;5069891;28;20431;-76
2022/07/17 02:25:51;;;;;;;3.35;1.50;;;;;;;19.81;49.44;102794.97;5070227;28;20048;-76
2022/07/17 02:28:17;;;;;;;5.90;1.73;;;;;;;19.80;49.41;102795.22;5069342;28;20028;-75
2022/07/17 02:30:43;;;;;;;5.75;1.90;;;;;;;19.69;49.68;102788.72;5069555;28;20032;-75
2022/07/17 02:33:08;;;;;;;6.43;2.40;;;;;;;19.72;49.52;102790.13;5071807;28;20044;-76
2022/07/17 02:35:34;;;;;;;5.35;1.80;;;;;;;19.78;49.10;102790.03;5075730;28;20027;-76
2022/07/17 02:37:59;;;;;;;4.65;1.45;;;;;;;19.82;48.64;102799.38;5076944;28;20103;-76
2022/07/17 02:40:25;;;;;;;2.97;1.65;;;;;;;19.67;49.27;102799.06;5076427;28;20028;-75
2022/07/17 02:42:51;;;;;;;6.28;2.00;;;;;;;19.76;49.48;102794.88;5083052;28;20082;-76
2022/07/17 02:45:18;;;;;;;5.05;1.85;;;;;;;19.73;49.85;102794.53;5095818;28;20040;-76
2022/07/17 02:47:43;;;;;;;4.82;2.00;;;;;;;19.63;49.91;102797.88;5095833;28;20066;-76
2022/07/17 02:50:09;;;;;;;3.75;1.67;;;;;;;19.57;50.00;102795.25;5096146;28;20047;-76
2022/07/17 02:52:35;;;;;;;5.97;1.98;;;;;;;19.56;49.80;102794.41;5093809;28;20050;-75
2022/07/17 02:55:01;;;;;;;3.53;2.00;;;;;;;19.54;50.32;102792.97;5075525;28;20033;-76
2022/07/17 02:57:26;;;;;;;4.65;1.80;;;;;;;19.53;50.49;102792.19;5075895;28;20063;-76
2022/07/17 02:59:52;;;;;;;5.78;2.58;;;;;;;19.41;51.03;102795.94;5075813;28;20029;-76
2022/07/17 03:02:18;;;;;;;4.75;1.67;;;;;;;19.50;50.39;102795.34;5075824;28;20112;-74
2022/07/17 03:04:43;;;;;;;5.07;1.90;;;;;;;19.41;50.44;102798.69;5075835;28;20036;-76
2022/07/17 03:07:09;;;;;;;3.90;1.80;;;;;;;19.53;50.22;102810.44;5057238;28;20041;-76
2022/07/17 03:09:34;;;;;;;4.15;2.17;;;;;;;19.45;50.06;102803.44;5075418;28;20093;-74
2022/07/17 03:12:00;;;;;;;5.10;1.80;;;;;;;19.48;50.31;102799.41;5074739;28;20051;-75
2022/07/17 03:14:25;;;;;;;2.72;1.65;;;;;;;19.39;50.49;102787.19;5056727;28;20043;-76
2022/07/17 03:16:51;;;;;;;1.73;1.42;;;;;;;19.47;50.74;102792.28;5076722;28;20100;-77
2022/07/17 03:19:16;;;;;;;6.22;1.90;;;;;;;19.41;50.44;102785.03;5074836;28;20101;-77
2022/07/17 03:21:41;;;;;;;7.40;1.77;;;;;;;19.53;49.97;102785.88;5075065;28;20044;-76
2022/07/17 03:24:07;;;;;;;2.13;1.70;;;;;;;19.51;49.87;102786.13;5057395;28;20029;-77
2022/07/17 03:26:33;;;;;;;3.53;1.88;;;;;;;19.50;50.31;102789.09;5074919;28;20032;-76
2022/07/17 03:28:58;;;;;;;4.70;1.95;;;;;;;19.41;50.28;102794.06;5089411;28;20032;-76
2022/07/17 03:31:23;;;;;;;5.15;2.30;;;;;;;19.45;49.82;102794.41;5095033;28;20044;-76
2022/07/17 03:33:49;;;;;;;2.65;1.83;;;;;;;19.49;49.87;102790.97;5096343;28;20032;-75
2022/07/17 03:36:14;;;;;;;3.08;1.52;;;;;;;19.48;49.99;102799.41;5095820;28;20044;-75
2022/07/17 03:38:39;;;;;;;3.08;2.15;;;;;;;19.44;50.68;102812.66;5095894;28;20055;-76
2022/07/17 03:41:05;;;;;;;2.30;1.60;;;;;;;19.06;51.50;102818.53;5096927;28;20028;-75
2022/07/17 03:43:30;;;;;;;4.88;2.08;;;;;;;18.96;52.29;102822.88;5083962;28;20032;-75
2022/07/17 03:45:56;;;;;;;3.58;1.90;;;;;;;19.11;51.60;102815.91;5071374;28;20047;-74
2022/07/17 03:48:21;;;;;;;2.67;1.50;;;;;;;19.27;51.06;102820.69;5073995;28;20047;-76
2022/07/17 03:50:47;;;;;;;1.42;1.27;;;;;;;19.30;50.57;102813.94;5070629;28;20515;-76
2022/07/17 03:53:12;;;;;;;4.90;1.50;;;;;;;19.41;50.53;102804.97;5073393;28;20407;-75
2022/07/17 03:55:37;;;;;;;4.95;1.75;;;;;;;19.40;50.86;102806.03;5072841;28;20039;-75
2022/07/17 03:58:03;;;;;;;2.30;1.75;;;;;;;19.38;50.81;102802.69;5072092;28;20040;-75
2022/07/17 04:00:29;;;;;;;4.68;1.90;;;;;;;19.34;51.05;102796.06;5072237;28;20036;-75
2022/07/17 04:02:54;;;;;;;5.20;2.20;;;;;;;19.36;51.09;102783.00;5069993;28;20146;-77
2022/07/17 04:05:20;;;;;;;4.05;1.80;;;;;;;19.54;50.95;102792.97;5075360;28;20476;-76
2022/07/17 04:07:45;;;;;;;7.43;2.05;;;;;;;19.65;50.59;102806.66;5072793;28;20041;-77
2022/07/17 04:10:14;;;;;;;5.25;1.75;;;;;;;19.61;50.05;102821.81;5072322;28;20032;-75
2022/07/17 04:12:40;;;;;;;5.20;2.00;;;;;;;19.41;51.62;102832.25;5072138;28;20112;-76
2022/07/17 04:15:07;;;;;;;6.00;2.22;;;;;;;19.48;51.53;102822.03;5072341;28;20029;-77
2022/07/17 04:17:32;;;;;;;7.28;1.58;;;;;;;19.69;51.17;102823.34;5071671;28;20146;-75
2022/07/17 04:19:58;;;;;;;5.10;2.10;;;;;;;19.77;51.33;102823.81;5072476;28;20139;-74
2022/07/17 04:22:23;;;;;;;7.55;2.03;;;;;;;19.81;51.42;102822.28;5072426;28;20033;-75
2022/07/17 04:24:49;;;;;;;4.85;2.50;;;;;;;19.88;50.97;102833.91;5072928;28;20025;-74
2022/07/17 04:27:14;;;;;;;4.07;1.70;;;;;;;19.91;51.01;102827.97;5072396;28;20341;-76
2022/07/17 04:29:40;;;;;;;2.45;1.75;;;;;;;20.02;50.94;102810.75;5090911;28;20035;-75
2022/07/17 04:32:06;;;;;;;3.50;1.95;;;;;;;19.99;50.98;102824.88;5091789;28;20071;-76
2022/07/17 04:34:32;;;;;;;3.22;1.70;;;;;;;19.93;51.03;102836.75;5091254;28;20151;-77
2022/07/17 04:36:58;;;;;;;5.18;2.10;;;;;;;19.68;51.81;102835.31;5090550;28;20042;-76
2022/07/17 04:39:24;;;;;;;3.15;2.03;;;;;;;19.79;51.95;102837.25;5090750;28;20407;-77
2022/07/17 04:41:50;;;;;;;5.15;1.80;;;;;;;20.17;50.75;102830.19;5091005;28;20043;-77
2022/07/17 04:44:15;;;;;;;2.92;1.60;;;;;;;20.23;50.47;102831.16;5090852;28;20024;-76
2022/07/17 04:46:41;;;;;;;4.53;1.77;;;;;;;20.25;50.26;102833.63;5090392;28;20139;-76
2022/07/17 04:49:06;;;;;;;3.60;1.80;;;;;;;20.40;50.32;102833.97;5090468;28;20043;-76
2022/07/17 04:51:31;;;;;;;7.53;1.98;;;;;;;20.53;50.04;102834.50;5090365;28;20063;-77
2022/07/17 04:53:57;;;;;;;3.67;1.67;;;;;;;20.60;49.72;102831.66;5091250;28;20036;-76
2022/07/17 04:56:22;;;;;;;3.95;2.00;;;;;;;20.67;49.91;102837.78;5089976;28;20055;-75
2022/07/17 04:58:48;;;;;;;5.05;1.85;;;;;;;20.69;49.59;102835.66;5090601;28;20043;-76
2022/07/17 05:01:13;;;;;;;4.80;2.22;;;;;;;20.64;49.72;102825.44;5090042;28;20028;-77
2022/07/17 05:03:38;;;;;;;3.70;1.90;;;;;;;20.40;49.92;102831.25;5073442;28;20041;-75
2022/07/17 05:06:04;;;;;;;6.05;2.00;;;;;;;20.59;49.15;102833.53;5069694;28;20041;-77
2022/07/17 05:08:29;;;;;;;5.93;2.00;;;;;;;20.61;48.89;102825.09;5069720;28;20091;-76
2022/07/17 05:10:55;;;;;;;4.53;1.75;;;;;;;20.59;48.90;102813.59;5070494;28;20472;-78
2022/07/17 05:13:20;;;;;;;5.95;1.83;;;;;;;20.69;48.52;102806.44;5070125;28;20075;-77
2022/07/17 05:15:46;;;;;;;4.20;1.88;;;;;;;20.69;48.64;102805.59;5076129;28;20040;-77
2022/07/17 05:18:11;;;;;;;3.40;1.83;;;;;;;20.66;48.71;102814.25;5089801;28;20044;-75
2022/07/17 05:20:39;;;;;;;5.32;1.90;;;;;;;20.81;48.70;102822.75;5089417;28;20044;-76
2022/07/17 05:23:04;;;;;;;9.18;2.53;;;;;;;20.78;49.09;102829.53;5090628;28;20098;-75
2022/07/17 05:25:29;;;;;;;4.75;1.70;;;;;;;20.67;48.84;102841.34;5089846;28;20523;-76
2022/07/17 05:27:55;;;;;;;6.03;1.98;;;;;;;20.75;48.41;102843.69;5084963;28;20040;-76
2022/07/17 05:30:20;;;;;;;4.03;1.92;;;;;;;20.70;49.35;102840.84;5069627;28;20334;-76
2022/07/17 05:32:46;;;;;;;4.95;1.45;;;;;;;20.73;48.63;102834.09;5069336;28;20044;-76
2022/07/17 05:35:11;;;;;;;4.05;1.38;;;;;;;20.74;48.84;102833.00;5069967;28;20564;-77
2022/07/17 05:37:36;;;;;;;5.18;1.95;;;;;;;20.71;48.67;102838.97;5069171;28;20052;-76
2022/07/17 05:40:03;;;;;;;7.50;2.03;;;;;;;20.82;48.45;102840.81;5069457;28;20048;-77
2022/07/17 05:42:28;;;;;;;4.88;1.90;;;;;;;20.51;49.25;102838.56;5069587;28;20135;-76
2022/07/17 05:44:53;;;;;;;3.38;1.42;;;;;;;20.57;49.24;102834.84;5069313;28;20032;-76
2022/07/17 05:47:19;;;;;;;3.50;2.08;;;;;;;20.44;50.06;102840.59;5069836;28;20070;-76
2022/07/17 05:49:44;;;;;;;10.60;2.45;;;;;;;20.45;49.94;102836.78;5069629;28;20126;-76
2022/07/17 05:52:09;;;;;;;6.78;2.10;;;;;;;20.42;50.04;102835.38;5069104;28;20051;-77
2022/07/17 05:54:35;;;;;;;9.07;1.83;;;;;;;20.59;49.19;102840.91;5069210;28;20028;-76
2022/07/17 05:57:01;;;;;;;4.22;1.52;;;;;;;20.55;49.15;102842.47;5068863;28;20052;-75
2022/07/17 05:59:26;;;;;;;8.23;2.20;;;;;;;20.52;49.13;102843.78;5081360;28;20107;-76
2022/07/17 06:01:52;;;;;;;4.07;1.85;;;;;;;20.47;49.20;102840.09;5073393;28;20044;-76
2022/07/17 06:04:17;;;;;;;4.53;2.05;;;;;;;20.64;48.80;102841.00;5068948;28;20033;-76
2022/07/17 06:06:42;;;;;;;5.57;1.92;;;;;;;20.61;48.42;102831.41;5068574;28;20036;-76
2022/07/17 06:09:08;;;;;;;3.13;1.80;;;;;;;20.63;48.96;102842.91;5068200;28;20377;-76
2022/07/17 06:11:34;;;;;;;5.95;2.90;;;;;;;20.60;49.15;102828.91;5068923;28;20107;-75
2022/07/17 06:13:59;;;;;;;9.80;1.88;;;;;;;20.87;47.72;102827.25;5069216;28;20044;-76
2022/07/17 06:16:24;;;;;;;3.38;1.25;;;;;;;21.23;46.68;102826.00;5080588;28;20490;-75
2022/07/17 06:18:50;;;;;;;6.20;1.95;;;;;;;21.21;47.25;102839.09;5071351;28;20039;-75
2022/07/17 06:21:15;;;;;;;5.50;2.45;;;;;;;21.43;46.42;102843.56;5068487;28;20043;-76
2022/07/17 06:23:41;;;;;;;6.40;2.00;;;;;;;21.37;45.35;102854.66;5068658;28;20476;-75
2022/07/17 06:26:06;;;;;;;6.13;1.73;;;;;;;21.28;45.68;102850.69;5069150;28;20464;-76
2022/07/17 06:28:32;;;;;;;5.05;1.63;;;;;;;21.47;45.51;102849.38;5067841;28;20044;-77
2022/07/17 06:30:57;;;;;;;7.07;1.75;;;;;;;21.60;45.16;102857.25;5068400;28;20036;-77
2022/07/17 06:33:22;;;;;;;10.90;2.08;;;;;;;21.52;45.75;102866.69;5068693;28;20083;-75
2022/07/17 06:35:48;;;;;;;12.70;2.30;;;;;;;21.67;45.31;102879.81;5068606;28;20039;-75
2022/07/17 06:38:13;;;;;;;5.18;1.70;;;;;;;21.56;46.16;102872.53;5069146;28;20043;-78
2022/07/17 06:40:39;;;;;;;7.10;1.95;;;;;;;21.46;46.25;102872.34;5068766;28;20024;-76
2022/07/17 06:43:06;;;;;;;8.18;1.80;;;;;;;21.89;45.40;102874.41;5068639;28;20082;-76
2022/07/17 06:45:31;;;;;;;8.32;1.70;;;;;;;22.21;44.99;102875.44;5068117;28;20044;-77
2022/07/17 06:47:57;;;;;;;3.67;1.38;;;;;;;22.44;44.37;102881.50;5068828;28;20063;-77
2022/07/17 06:50:22;;;;;;;5.18;1.20;;;;;;;22.62;43.25;102867.50;5069144;28;20039;-76
2022/07/17 06:52:47;;;;;;;5.30;1.30;;;;;;;22.54;43.53;102850.66;5069559;28;20039;-77
2022/07/17 06:55:13;;;;;;;6.72;1.48;;;;;;;22.71;43.65;102851.44;5068713;28;20055;-76
2022/07/17 06:57:38;;;;;;;5.30;1.55;;;;;;;22.74;42.77;102850.09;5067930;28;20055;-77
2022/07/17 07:00:04;;;;;;;8.05;1.35;;;;;;;22.79;42.66;102853.72;5085675;28;20032;-76
2022/07/17 07:02:30;;;;;;;2.75;1.52;;;;;;;22.84;42.14;102863.91;5088611;28;20480;-77
2022/07/17 07:04:55;;;;;;;6.75;1.80;;;;;;;22.77;42.88;102855.88;5089162;28;20495;-76
2022/07/17 07:07:20;;;;;;;5.30;1.70;;;;;;;22.79;42.89;102863.84;5088832;28;20051;-76
2022/07/17 07:09:46;;;;;;;6.65;1.33;;;;;;;22.73;43.22;102862.97;5087808;28;20553;-76
2022/07/17 07:12:11;;;;;;;6.43;1.60;;;;;;;23.04;42.31;102875.91;5087968;28;20098;-76
2022/07/17 07:14:37;;;;;;;5.65;1.27;;;;;;;22.76;41.84;102878.09;5088331;28;20035;-77
2022/07/17 07:17:02;;;;;;;5.82;1.50;;;;;;;22.79;40.94;102872.91;5071816;28;20534;-76
2022/07/17 07:19:27;;;;;;;5.03;1.60;;;;;;;23.04;39.65;102881.41;5069192;28;20052;-76
2022/07/17 07:21:53;;;;;;;10.32;1.30;;;;;;;22.74;40.14;102872.03;5071958;28;20094;-77
2022/07/17 07:24:18;;;;;;;5.20;1.50;;;;;;;22.67;40.80;102883.19;5072364;28;20526;-75
2022/07/17 07:26:43;;;;;;;6.15;1.13;;;;;;;22.91;39.04;102886.47;5071975;28;20090;-75
2022/07/17 07:29:09;;;;;;;9.45;1.88;;;;;;;22.92;39.27;102890.88;5072335;28;20047;-77
2022/07/17 07:31:34;;;;;;;7.70;1.17;;;;;;;22.77;40.02;102885.22;5071632;28;20037;-76
2022/07/17 07:34:00;;;;;;;9.07;1.38;;;;;;;23.33;39.03;102885.56;5072397;28;20029;-78
2022/07/17 07:36:25;;;;;;;7.57;1.17;;;;;;;23.43;38.94;102882.91;5071911;28;20488;-76
2022/07/17 07:38:50;;;;;;;5.72;1.23;;;;;;;23.55;38.72;102879.97;5072162;28;20032;-77
2022/07/17 07:41:16;;;;;;;5.30;1.15;;;;;;;23.41;38.77;102882.31;5072016;28;20079;-70
2022/07/17 07:43:41;;;;;;;4.55;1.27;;;;;;;23.40;39.21;102885.34;5072305;28;20070;-77
2022/07/17 07:46:07;;;;;;;6.07;1.08;;;;;;;23.16;40.38;102884.81;5072074;28;20032;-77
2022/07/17 07:48:32;;;;;;;8.70;1.30;;;;;;;23.42;39.23;102875.78;5071683;28;20040;-76
2022/07/17 07:50:58;;;;;;;4.85;1.10;;;;;;;23.03;39.83;102878.91;5071735;28;20041;-78
2022/07/17 07:53:23;;;;;;;7.45;1.75;;;;;;;22.98;39.91;102882.44;5071486;28;20032;-75
2022/07/17 07:55:49;;;;;;;12.70;1.52;;;;;;;23.23;39.57;102885.41;5072374;28;20499;-76
2022/07/17 07:58:14;;;;;;;4.60;0.88;;;;;;;23.04;40.12;102891.53;5074616;28;20033;-76
2022/07/17 08:00:42;;;;;;;9.15;1.13;;;;;;;23.60;38.94;102887.44;5086153;28;20032;-76
2022/07/17 08:03:08;;;;;;;3.45;0.80;;;;;;;22.75;40.33;102887.38;5071428;28;20120;-77
2022/07/17 08:05:33;;;;;;;2.83;0.75;;;;;;;22.92;40.07;102886.19;5053038;28;20484;-77
2022/07/17 08:07:59;;;;;;;5.22;0.90;;;;;;;23.37;39.42;102877.66;5071891;28;20154;-76
2022/07/17 08:10:24;;;;;;;7.07;1.20;;;;;;;23.67;38.76;102886.09;5071407;28;20033;-77
2022/07/17 08:12:50;;;;;;;4.72;1.33;;;;;;;23.77;39.07;102879.88;5071945;28;20044;-76
2022/07/17 08:15:18;;;;;;;2.83;1.00;;;;;;;23.80;38.59;102880.19;5055325;28;20036;-75
2022/07/17 08:17:44;;;;;;;12.55;1.50;;;;;;;23.42;39.78;102880.41;5091586;28;20052;-77
2022/07/17 08:20:10;;;;;;;7.13;2.15;;;;;;;23.66;39.09;102876.22;5092128;28;20064;-77
2022/07/17 08:22:36;;;;;;;3.95;1.63;;;;;;;23.60;39.07;102881.94;5091603;28;20036;-79
2022/07/17 08:25:01;;;;;;;6.32;1.13;;;;;;;23.83;38.89;102878.81;5078868;28;20037;-78
2022/07/17 08:27:27;;;;;;;4.45;1.08;;;;;;;24.03;38.66;102873.47;5071431;28;20075;-78
2022/07/17 08:29:52;;;;;;;9.40;1.90;;;;;;;24.38;38.40;102871.75;5071426;28;20306;-75
2022/07/17 08:32:18;;;;;;;7.38;0.90;;;;;;;24.20;38.26;102863.13;5070204;28;20036;-74
2022/07/17 08:34:43;;;;;;;4.78;0.90;;;;;;;23.90;38.44;102866.50;5071587;28;20036;-76
2022/07/17 08:37:08;;;;;;;4.93;1.15;;;;;;;23.72;39.72;102872.44;5071385;28;20099;-76
2022/07/17 08:39:34;;;;;;;5.18;1.20;;;;;;;23.82;38.86;102864.25;5052815;28;20041;-76
2022/07/17 08:42:02;;;;;;;5.35;1.05;;;;;;;24.21;37.90;102870.28;5070663;28;20044;-78
2022/07/17 08:44:28;;;;;;;4.55;1.05;;;;;;;24.79;37.28;102871.91;5070623;28;20563;-77
2022/07/17 08:46:54;;;;;;;4.05;0.93;;;;;;;24.94;37.80;102863.72;5070911;28;20115;-77
2022/07/17 08:49:23;;;;;;;9.30;0.98;;;;;;;25.13;36.96;102875.84;5069484;28;20388;-77
2022/07/17 08:51:49;;;;;;;5.35;1.20;;;;;;;24.95;36.90;102870.84;5063514;28;20033;-76
2022/07/17 08:54:14;;;;;;;3.28;0.88;;;;;;;24.65;37.30;102870.75;5059069;28;20036;-77
2022/07/17 08:56:40;;;;;;;6.38;1.67;;;;;;;24.28;38.41;102866.22;5059298;28;20047;-79
2022/07/17 08:59:05;;;;;;;5.43;1.45;;;;;;;24.76;37.00;102873.31;5060954;28;20029;-75
2022/07/17 09:01:31;;;;;;;4.50;0.90;;;;;;;24.66;36.81;102873.25;5063929;28;20036;-78
2022/07/17 09:04:05;;;;;;;3.85;0.82;;;;;;;24.83;36.44;102871.09;5060519;28;20404;-76
2022/07/17 09:06:32;;;;;;;7.53;1.60;;;;;;;25.47;36.09;102871.50;5045326;28;20613;-76
2022/07/17 09:09:11;;;;;;;4.97;0.93;;;;;;;25.17;36.49;102872.28;5055048;28;20050;-76
2022/07/17 09:11:43;;;;;;;7.20;1.27;;;;;;;25.96;35.35;102869.75;5057822;28;20055;-74
2022/07/17 09:14:09;;;;;;;3.97;1.00;;;;;;;26.06;34.91;102867.03;5066366;28;20029;-76
2022/07/17 09:16:36;;;;;;;5.53;0.95;;;;;;;25.95;34.86;102872.81;5079974;28;20062;-76
2022/07/17 09:19:02;;;;;;;6.32;0.85;;;;;;;25.88;34.96;102880.53;5072706;28;20134;-76
2022/07/17 09:21:29;;;;;;;4.20;1.17;;;;;;;25.55;35.78;102879.19;5048324;28;20060;-76
2022/07/17 09:24:03;;;;;;;3.58;0.80;;;;;;;25.66;35.62;102882.78;5066938;28;20052;-76
2022/07/17 09:26:30;;;;;;;6.90;1.00;;;;;;;25.69;35.34;102877.53;5066374;28;20093;-75
2022/07/17 09:28:55;;;;;;;3.92;0.88;;;;;;;25.99;35.24;102883.00;5066754;28;20035;-76
2022/07/17 09:31:28;;;;;;;9.05;1.08;;;;;;;25.16;35.98;102884.38;5067243;28;20044;-76
2022/07/17 09:33:55;;;;;;;6.63;1.10;;;;;;;25.58;35.09;102880.56;5047966;28;20067;-76
2022/07/17 09:36:21;;;;;;;4.15;0.85;;;;;;;26.13;33.99;102876.94;5061913;28;20067;-76
2022/07/17 09:38:51;;;;;;;13.35;1.15;;;;;;;26.29;33.88;102870.25;5058733;28;20082;-77
2022/07/17 09:41:20;;;;;;;5.70;0.90;;;;;;;26.59;34.18;102870.13;5064567;28;20036;-76
2022/07/17 09:43:57;;;;;;;4.78;0.95;;;;;;;26.53;33.55;102874.03;5062654;28;20044;-78
2022/07/17 09:46:30;;;;;;;5.18;1.67;;;;;;;25.86;34.83;102872.56;5063958;28;20347;-77
2022/07/17 09:48:57;;;;;;;7.80;1.33;;;;;;;26.20;35.15;102878.28;5064251;28;20449;-76
2022/07/17 09:51:34;;;;;;;5.18;1.10;;;;;;;26.74;33.97;102879.19;5062601;28;20041;-76
2022/07/17 09:54:02;;;;;;;5.45;1.05;;;;;;;26.67;34.10;102877.84;5063298;28;20074;-76
2022/07/17 09:56:30;;;;;;;4.53;0.95;;;;;;;26.63;33.85;102871.22;5065437;28;20186;-76
2022/07/17 09:59:01;;;;;;;5.75;0.70;;;;;;;26.99;32.88;102866.38;5065161;28;20114;-75
2022/07/17 10:01:27;;;;;;;9.07;1.65;;;;;;;26.55;34.05;102875.41;5062302;28;20021;-79
2022/07/17 10:03:55;;;;;;;3.33;0.90;;;;;;;26.66;33.54;102879.75;5067058;28;20067;-78
2022/07/17 10:06:22;;;;;;;3.28;0.98;;;;;;;26.62;34.01;102880.59;5065996;28;20036;-76
2022/07/17 10:08:48;;;;;;;2.58;0.82;;;;;;;26.87;33.24;102873.03;5046561;28;20037;-78
2022/07/17 10:11:15;;;;;;;4.97;0.98;;;;;;;26.57;33.83;102877.88;5065378;28;20396;-77
2022/07/17 10:13:43;;;;;;;3.28;0.77;;;;;;;27.56;32.88;102872.81;5066611;28;20043;-77
2022/07/17 10:16:09;;;;;;;7.97;0.90;;;;;;;27.97;31.98;102872.47;5065809;28;20400;-77
2022/07/17 10:18:43;;;;;;;4.50;0.90;;;;;;;27.49;32.12;102866.81;5067187;28;20048;-76
2022/07/17 10:21:08;;;;;;;4.28;1.00;;;;;;;26.82;31.95;102864.81;5065273;28;20131;-77
2022/07/17 10:23:34;;;;;;;2.33;0.95;;;;;;;27.24;31.56;102864.25;5064196;28;20100;-76
2022/07/17 10:26:00;;;;;;;6.20;0.88;;;;;;;26.86;32.42;102862.28;5064886;28;20036;-77
2022/07/17 10:28:25;;;;;;;2.38;0.50;;;;;;;27.52;31.44;102851.59;5064009;28;20051;-77
2022/07/17 10:30:50;;;;;;;8.27;2.05;;;;;;;28.32;30.70;102859.06;5064495;28;20083;-77
2022/07/17 10:33:17;;;;;;;2.10;0.60;;;;;;;29.06;30.09;102855.53;5066104;28;20056;-76
2022/07/17 10:35:46;;;;;;;6.13;0.70;;;;;;;29.07;29.62;102850.81;5067627;28;20101;-77
2022/07/17 10:38:14;;;;;;;7.20;1.02;;;;;;;29.59;29.69;102844.13;5067887;28;20381;-78
2022/07/17 10:40:41;;;;;;;3.03;0.88;;;;;;;29.45;29.60;102841.34;5060359;28;20025;-77
2022/07/17 10:43:08;;;;;;;5.15;1.00;;;;;;;29.62;28.22;102838.00;5056370;28;20032;-77
2022/07/17 10:45:37;;;;;;;3.65;1.35;;;;;;;29.62;28.33;102846.31;5062723;28;20574;-77
2022/07/17 10:48:08;;;;;;;6.47;1.10;;;;;;;29.88;27.46;102848.31;5063583;28;20040;-77
2022/07/17 10:50:41;;;;;;;5.20;1.30;;;;;;;29.90;27.72;102850.78;5064137;28;20029;-76
2022/07/17 10:53:17;;;;;;;3.80;0.73;;;;;;;30.14;27.63;102851.41;5060337;28;20583;-76
2022/07/17 10:55:45;;;;;;;3.30;0.70;;;;;;;30.31;27.70;102855.25;5065772;28;20070;-78
2022/07/17 10:58:28;;;;;;;2.30;1.13;;;;;;;30.25;27.13;102844.53;5068764;28;20048;-76
2022/07/17 11:00:56;;;;;;;1.73;0.68;;;;;;;30.68;26.72;102840.28;5064918;28;20040;-78
2022/07/17 11:03:22;;;;;;;8.32;1.30;;;;;;;30.85;26.36;102853.53;5070068;28;20028;-77
2022/07/17 11:05:48;;;;;;;3.85;0.95;;;;;;;29.50;27.92;102855.13;5069978;28;20051;-76
2022/07/17 11:08:14;;;;;;;4.97;1.00;;;;;;;30.41;27.08;102840.31;5068810;28;20055;-76
2022/07/17 11:10:39;;;;;;;4.85;0.93;;;;;;;31.09;25.88;102848.50;5069487;28;20036;-75
2022/07/17 11:13:16;;;;;;;4.70;0.93;;;;;;;30.88;25.34;102850.94;5071537;28;20078;-76
2022/07/17 11:15:43;;;;;;;2.97;0.80;;;;;;;31.12;26.23;102847.84;5068569;28;20147;-77
2022/07/17 11:18:14;;;;;;;4.43;0.90;;;;;;;31.69;25.54;102843.34;5067641;28;20033;-78
2022/07/17 11:20:59;;;;;;;7.35;1.08;;;;;;;31.77;25.13;102840.63;5068347;28;20044;-78